Amite, Louisiana
Current Conditions -  °F | °C
As of 2:55 PM on Thursday 20 Nov 2014 (Local Time) from KHDC Reporting Station
Overcast Overcast  
Wind Chill: 20°   Ceiling: 6000
Heat Index: 20°   Visibility: 10mi
Dew Point:   Wind: 9mph
Humidity: 40%   Direction: 130°SE
Pressure: 30.2"   Gusts: NA
Location:  30.73°N, 90.51°W
Report Text: KHDC 202055Z AUTO 13008KT 10SM BKN060 OVC070 20/06 A3020 RMK AO2
Loading
Personal Weather Stations






























Interactive Weather Map New forecast layout! Learn more

10-Day Weather Forecast

Advertisements
Track Severe Weather on mobile